EDDK/CGN METAR and TAF weather

Enter ICAO airport designator
Station Type Date Time Source
EDDK METAR 2022/12/04 11:20 UTC NOAA

EDDK 041120Z AUTO 12004KT 070V150 9999 OVC013 02/M01 Q1016 NOSIG


Station Type Date Time Source
EDDK Decoded METAR 2022/12/04 11:20 UTC NOAA

Koeln / Bonn, Germany (EDDK) 50-52N 007-10E 100M
Dec 04, 2022 - 06:20 AM EST / 2022.12.04 1120 UTC
Wind: from the ESE (120 degrees) at 5 MPH (4 KT) (direction variable):0
Visibility: greater than 7 mile(s):0
Sky conditions: overcast
Temperature: 35 F (2 C)
Windchill: 30 F (-1 C):1
Dew Point: 30 F (-1 C)
Relative Humidity: 80%
Pressure (altimeter): 30.00 in. Hg (1016 hPa)
ob: EDDK 041120Z AUTO 12004KT 070V150 9999 OVC013 02/M01 Q1016 NOSIG
cycle: 11

Station Type Date Time Source
EDDK TAF 2022/12/04 12:27 UTC NOAA

TAF EDDK 041100Z 0412/0518 09006KT 9999 BKN020
BECMG 0422/0501 33004KT
BECMG 0500/0503 BKN012 PROB40
TEMPO 0502/0509 4000 RA
BECMG 0505/0508 BKN008 PROB30
TEMPO 0506/0511 2000 -RASN BKN004
TEMPO 0511/0515 4000 RADZ BR BKN004
BECMG 0515/0518 4000 DZRA BR BKN004 PROB30
TEMPO 0515/0518 1400 SNRA BKN001

Example: see airport list